createdAt,value
2022-12-11T00:09:03.671Z,0.88
2022-12-11T00:19:05.679Z,0.87
2022-12-11T00:29:08.908Z,0.91
2022-12-11T00:39:10.291Z,0.88
2022-12-11T00:49:12.147Z,0.90
2022-12-11T00:59:13.528Z,0.89
2022-12-11T01:09:33.321Z,0.91
2022-12-11T01:19:34.695Z,0.91
2022-12-11T01:29:36.046Z,0.96
2022-12-11T01:39:38.703Z,0.95
2022-12-11T01:49:41.554Z,0.96
2022-12-11T01:59:46.233Z,0.91
2022-12-11T02:09:48.648Z,0.93
2022-12-11T02:19:57.873Z,0.92
2022-12-11T02:30:11.731Z,0.96
2022-12-11T02:40:17.800Z,1.00
2022-12-11T02:50:21.597Z,1.01
2022-12-11T03:00:23.298Z,0.98
2022-12-11T03:10:25.315Z,0.95
2022-12-11T03:20:43.647Z,0.97
2022-12-11T03:30:48.527Z,0.99
2022-12-11T03:40:54.029Z,0.98
2022-12-11T03:50:55.967Z,1.03
2022-12-11T04:00:57.418Z,1.12
2022-12-11T04:11:17.205Z,1.13
2022-12-11T04:21:39.670Z,1.16
2022-12-11T04:31:41.338Z,1.18
2022-12-11T04:41:42.787Z,1.24
2022-12-11T04:51:44.158Z,1.19
2022-12-11T05:01:45.878Z,1.21
2022-12-11T05:11:47.293Z,1.25
2022-12-11T05:21:48.663Z,1.24
2022-12-11T05:31:49.983Z,1.27
2022-12-11T05:41:51.338Z,1.33
2022-12-11T05:51:52.682Z,1.34
2022-12-11T06:01:54.125Z,1.35
2022-12-11T06:11:55.548Z,1.33
2022-12-11T06:21:56.910Z,1.42
2022-12-11T06:31:58.294Z,1.37
2022-12-11T06:41:59.690Z,1.42
2022-12-11T06:52:01.026Z,1.41
2022-12-11T07:02:02.799Z,1.40
2022-12-11T07:12:04.734Z,1.41
2022-12-11T07:22:06.242Z,1.40
2022-12-11T07:32:07.648Z,1.43
2022-12-11T07:42:09.147Z,1.48
2022-12-11T07:52:10.804Z,1.46
2022-12-11T08:02:12.308Z,1.46
2022-12-11T08:12:13.720Z,1.44
2022-12-11T08:22:15.082Z,1.45
2022-12-11T08:32:16.911Z,1.45
2022-12-11T08:42:18.254Z,1.45
2022-12-11T08:52:19.598Z,1.49
2022-12-11T09:02:21.020Z,1.50
2022-12-11T09:12:22.985Z,1.50
2022-12-11T09:22:24.340Z,1.50
2022-12-11T09:32:25.708Z,1.50
2022-12-11T09:42:36.068Z,1.52
2022-12-11T09:52:46.375Z,1.56
2022-12-11T10:03:02.917Z,1.59
2022-12-11T10:13:20.920Z,1.60
2022-12-11T10:23:36.561Z,1.55
2022-12-11T10:33:56.765Z,1.60
2022-12-11T10:43:58.192Z,1.64
2022-12-11T10:54:39.505Z,1.67
2022-12-11T11:04:44.701Z,1.69
2022-12-11T11:14:46.239Z,1.76
2022-12-11T11:24:58.356Z,1.77
2022-12-11T11:35:26.948Z,1.81
2022-12-11T11:45:53.852Z,1.89
2022-12-11T11:56:23.440Z,2.35
2022-12-11T12:07:07.085Z,2.35
2022-12-11T12:17:08.443Z,2.25
2022-12-11T12:27:52.187Z,2.18
2022-12-11T12:38:05.482Z,2.13
2022-12-11T12:48:08.999Z,2.09
2022-12-11T12:58:29.350Z,2.10
2022-12-11T13:08:40.957Z,2.04
2022-12-11T13:18:45.523Z,2.07
2022-12-11T13:28:50.953Z,2.08
2022-12-11T13:38:56.804Z,2.11
2022-12-11T13:49:01.806Z,2.08
2022-12-11T13:59:03.374Z,2.00
2022-12-11T14:09:08.098Z,2.18
2022-12-11T14:19:10.884Z,2.22
2022-12-11T14:29:28.028Z,2.16
2022-12-11T14:39:44.523Z,2.07
2022-12-11T14:50:03.785Z,2.09
2022-12-11T15:00:06.083Z,1.99
2022-12-11T15:10:20.836Z,1.96
2022-12-11T15:20:27.401Z,1.91
2022-12-11T15:30:34.744Z,1.91
2022-12-11T15:40:38.498Z,1.89
2022-12-11T15:50:39.936Z,1.81
2022-12-11T16:00:41.338Z,1.83
2022-12-11T16:10:44.145Z,1.76
2022-12-11T16:20:46.234Z,1.77
2022-12-11T16:30:48.108Z,1.69
2022-12-11T16:40:49.472Z,1.67
2022-12-11T16:50:53.666Z,1.67
2022-12-11T17:01:02.003Z,1.75
2022-12-11T17:11:12.882Z,1.70
2022-12-11T17:21:16.538Z,1.68
2022-12-11T17:31:19.344Z,1.61
2022-12-11T17:41:21.764Z,1.63
2022-12-11T17:51:24.434Z,1.57
2022-12-11T18:01:26.152Z,1.59
2022-12-11T18:11:27.553Z,1.51
2022-12-11T18:21:31.937Z,1.56
2022-12-11T18:31:36.379Z,1.60
2022-12-11T18:41:42.029Z,1.54
2022-12-11T18:51:43.514Z,1.56
2022-12-11T19:01:44.953Z,1.52
2022-12-11T19:11:47.380Z,1.48
2022-12-11T19:21:49.941Z,1.52
2022-12-11T19:31:51.628Z,1.47
2022-12-11T19:41:53.042Z,1.45
2022-12-11T19:51:54.475Z,1.38
2022-12-11T20:01:55.874Z,1.39
2022-12-11T20:11:57.415Z,1.37
2022-12-11T20:21:58.764Z,1.34
2022-12-11T20:32:00.375Z,1.35
2022-12-11T20:42:04.664Z,1.51
2022-12-11T20:52:06.623Z,1.37
2022-12-11T21:02:09.627Z,1.36
2022-12-11T21:12:11.009Z,1.37
2022-12-11T21:22:12.653Z,1.39
2022-12-11T21:32:14.116Z,1.38
2022-12-11T21:42:15.848Z,1.51
2022-12-11T21:52:17.230Z,1.49
2022-12-11T22:02:18.728Z,1.43
2022-12-11T22:12:25.958Z,1.45
2022-12-11T22:22:27.322Z,1.45
2022-12-11T22:32:28.712Z,1.35
2022-12-11T22:42:30.103Z,1.40
2022-12-11T22:52:31.611Z,1.37
2022-12-11T23:02:32.982Z,1.32
2022-12-11T23:12:34.902Z,1.40
2022-12-11T23:22:36.327Z,1.44
2022-12-11T23:32:38.183Z,1.36
2022-12-11T23:42:40.544Z,1.35
2022-12-11T23:52:42.069Z,1.36
